Time;durP1;ratioP1;P1;durP2;ratioP2;P2;SDS_P1;SDS_P2;PMS_P1;PMS_P2;Temp;Humidity;BMP_temperature;BMP_pressure;BME280_temperature;BME280_humidity;BME280_pressure;Samples;Min_cycle;Max_cycle;Signal;HPM_P1;HPM_P2
2023/04/01 00:02:08;;;;;;;;;;;;;;;9.42;100;99074.7;;;;-75
2023/04/01 00:07:12;;;;;;;;;;;;;;;9.42;100;99078.98;;;;-76
2023/04/01 00:12:11;;;;;;;;;;;;;;;9.39;100;99078.28;;;;-74
2023/04/01 00:17:08;;;;;;;;;;;;;;;9.38;100;99079.78;;;;-75
2023/04/01 00:19:02;;;;;;;14.9;3.9;;;;;;;;;;;;;-73
2023/04/01 00:22:11;;;;;;;;;;;;;;;9.37;100;99082.12;;;;-74
2023/04/01 00:27:08;;;;;;;;;;;;;;;9.36;100;99087.59;;;;-76
2023/04/01 00:32:10;;;;;;;;;;;;;;;9.35;100;99091.02;;;;-75
2023/04/01 00:37:09;;;;;;;;;;;;;;;9.33;100;99097.47;;;;-74
2023/04/01 00:42:09;;;;;;;;;;;;;;;9.32;100;99098.69;;;;-75
2023/04/01 00:47:08;;;;;;;;;;;;;;;9.31;100;99101.03;;;;-75
2023/04/01 00:49:03;;;;;;;11.6;3.8;;;;;;;;;;;;;-76
2023/04/01 00:52:11;;;;;;;;;;;;;;;9.29;100;99105.36;;;;-75
2023/04/01 00:57:11;;;;;;;;;;;;;;;9.28;100;99106.59;;;;-75
2023/04/01 01:02:11;;;;;;;;;;;;;;;9.27;100;99111.89;;;;-75
2023/04/01 01:07:15;;;;;;;;;;;;;;;9.25;100;99115.95;;;;-76
2023/04/01 01:12:11;;;;;;;;;;;;;;;9.25;100;99116.34;;;;-73
2023/04/01 01:17:14;;;;;;;;;;;;;;;9.24;100;99120.45;;;;-74
2023/04/01 01:19:11;;;;;;;11.4;3.5;;;;;;;;;;;;;-74
2023/04/01 01:22:24;;;;;;;;;;;;;;;9.23;100;99128.57;;;;-74
2023/04/01 01:27:11;;;;;;;;;;;;;;;9.21;100;99129.6;;;;-74
2023/04/01 01:32:11;;;;;;;;;;;;;;;9.19;100;99133.13;;;;-75
2023/04/01 01:37:11;;;;;;;;;;;;;;;9.2;100;99138.93;;;;-75
2023/04/01 01:42:10;;;;;;;;;;;;;;;9.19;100;99144.17;;;;-75
2023/04/01 01:47:09;;;;;;;;;;;;;;;9.18;100;99150.89;;;;-75
2023/04/01 01:49:07;;;;;;;10.5;3.5;;;;;;;;;;;;;-75
2023/04/01 01:52:11;;;;;;;;;;;;;;;9.18;99.96191;99155.67;;;;-75
2023/04/01 01:57:10;;;;;;;;;;;;;;;9.17;100;99161.66;;;;-74
2023/04/01 02:02:11;;;;;;;;;;;;;;;9.17;99.83691;99164.58;;;;-74
2023/04/01 02:07:11;;;;;;;;;;;;;;;9.17;100;99172.29;;;;-75
2023/04/01 02:12:10;;;;;;;;;;;;;;;9.17;100;99179.61;;;;-74
2023/04/01 02:17:12;;;;;;;;;;;;;;;9.17;100;99185.65;;;;-74
2023/04/01 02:19:08;;;;;;;10.9;3.4;;;;;;;;;;;;;-74
2023/04/01 02:22:12;;;;;;;;;;;;;;;9.18;99.84961;99196.08;;;;-77
2023/04/01 02:27:08;;;;;;;;;;;;;;;9.17;99.77051;99199.63;;;;-74
2023/04/01 02:32:09;;;;;;;;;;;;;;;9.18;100;99203.75;;;;-74
2023/04/01 02:37:08;;;;;;;;;;;;;;;9.2;100;99212.83;;;;-74
2023/04/01 02:42:09;;;;;;;;;;;;;;;9.2;100;99223.13;;;;-74
2023/04/01 02:47:08;;;;;;;;;;;;;;;9.22;100;99224.7;;;;-75
2023/04/01 02:49:08;;;;;;;8;3.8;;;;;;;;;;;;;-75
2023/04/01 02:52:08;;;;;;;;;;;;;;;9.24;100;99236;;;;-73
2023/04/01 02:57:11;;;;;;;;;;;;;;;9.25;100;99247.39;;;;-74
2023/04/01 03:02:08;;;;;;;;;;;;;;;9.26;100;99254.71;;;;-74
2023/04/01 03:07:09;;;;;;;;;;;;;;;9.26;100;99269.13;;;;-75
2023/04/01 03:12:09;;;;;;;;;;;;;;;9.27;100;99280.28;;;;-74
2023/04/01 03:17:09;;;;;;;;;;;;;;;9.26;100;99285.27;;;;-76
2023/04/01 03:19:09;;;;;;;6.7;3.6;;;;;;;;;;;;;-74
2023/04/01 03:22:09;;;;;;;;;;;;;;;9.26;100;99291.86;;;;-77
2023/04/01 03:27:08;;;;;;;;;;;;;;;9.26;100;99302.42;;;;-74
2023/04/01 03:32:11;;;;;;;;;;;;;;;9.26;100;99310.05;;;;-74
2023/04/01 03:37:08;;;;;;;;;;;;;;;9.26;100;99315.99;;;;-74
2023/04/01 03:42:09;;;;;;;;;;;;;;;9.26;100;99321.66;;;;-74
2023/04/01 03:47:12;;;;;;;;;;;;;;;9.26;100;99327.45;;;;-75
2023/04/01 03:49:11;;;;;;;6;3.5;;;;;;;;;;;;;-75
2023/04/01 03:52:11;;;;;;;;;;;;;;;9.25;100;99336.59;;;;-75
2023/04/01 03:57:08;;;;;;;;;;;;;;;9.25;100;99349.01;;;;-74
2023/04/01 04:02:08;;;;;;;;;;;;;;;9.26;100;99351.05;;;;-74
2023/04/01 04:07:08;;;;;;;;;;;;;;;9.25;100;99354.34;;;;-74
2023/04/01 04:12:13;;;;;;;;;;;;;;;9.21;100;99367.12;;;;-76
2023/04/01 04:17:11;;;;;;;;;;;;;;;9.18;100;99369.12;;;;-74
2023/04/01 04:19:14;;;;;;;5.5;3.5;;;;;;;;;;;;;-75
2023/04/01 04:22:08;;;;;;;;;;;;;;;9.16;100;99379.16;;;;-75
2023/04/01 04:27:08;;;;;;;;;;;;;;;9.17;100;99383.42;;;;-75
2023/04/01 04:32:08;;;;;;;;;;;;;;;9.16;100;99392.78;;;;-76
2023/04/01 04:37:09;;;;;;;;;;;;;;;9.15;100;99398.8;;;;-75
2023/04/01 04:42:09;;;;;;;;;;;;;;;9.15;100;99409.31;;;;-76
2023/04/01 04:47:08;;;;;;;;;;;;;;;9.14;100;99417.39;;;;-75
2023/04/01 04:49:13;;;;;;;5.7;3.2;;;;;;;;;;;;;-74
2023/04/01 04:52:11;;;;;;;;;;;;;;;9.14;100;99421.67;;;;-75
2023/04/01 04:57:12;;;;;;;;;;;;;;;9.13;100;99428.17;;;;-74
2023/04/01 05:02:10;;;;;;;;;;;;;;;9.14;100;99438.13;;;;-75
2023/04/01 05:07:08;;;;;;;;;;;;;;;9.15;100;99447.77;;;;-74
2023/04/01 05:12:12;;;;;;;;;;;;;;;9.15;100;99455.9;;;;-73
2023/04/01 05:17:13;;;;;;;;;;;;;;;9.15;100;99469.09;;;;-73
2023/04/01 05:19:14;;;;;;;8.6;4.2;;;;;;;;;;;;;-74
2023/04/01 05:22:11;;;;;;;;;;;;;;;9.15;100;99476.15;;;;-75
2023/04/01 05:27:08;;;;;;;;;;;;;;;9.15;100;99482.1;;;;-74
2023/04/01 05:32:08;;;;;;;;;;;;;;;9.15;100;99490.83;;;;-74
2023/04/01 05:37:09;;;;;;;;;;;;;;;9.15;100;99496.5;;;;-76
2023/04/01 05:42:09;;;;;;;;;;;;;;;9.16;100;99502.77;;;;-75
2023/04/01 05:47:08;;;;;;;;;;;;;;;9.17;100;99514.31;;;;-74
2023/04/01 05:49:15;;;;;;;11.5;6;;;;;;;;;;;;;-75
2023/04/01 05:52:11;;;;;;;;;;;;;;;9.16;100;99521.97;;;;-75
2023/04/01 05:57:08;;;;;;;;;;;;;;;9.16;100;99529.64;;;;-75
2023/04/01 06:02:12;;;;;;;;;;;;;;;9.18;100;99534.09;;;;-75
2023/04/01 06:07:09;;;;;;;;;;;;;;;9.18;100;99545.29;;;;-75
2023/04/01 06:12:20;;;;;;;;;;;;;;;9.19;100;99553.64;;;;-76
2023/04/01 06:17:17;;;;;;;;;;;;;;;9.21;100;99558.75;;;;-75
2023/04/01 06:19:21;;;;;;;10.5;5.3;;;;;;;;;;;;;-76
2023/04/01 06:22:25;;;;;;;;;;;;;;;9.21;100;99572.09;;;;-75
2023/04/01 06:27:16;;;;;;;;;;;;;;;9.23;100;99574.98;;;;-75
2023/04/01 06:32:24;;;;;;;;;;;;;;;9.24;100;99587.92;;;;-75
2023/04/01 06:37:18;;;;;;;;;;;;;;;9.25;100;99589.98;;;;-75
2023/04/01 06:42:27;;;;;;;;;;;;;;;9.27;100;99596.13;;;;-75
2023/04/01 06:47:18;;;;;;;;;;;;;;;9.28;100;99608.33;;;;-76
2023/04/01 06:49:33;;;;;;;16.2;5.8;;;;;;;;;;;;;-75
2023/04/01 06:52:12;;;;;;;;;;;;;;;9.26;100;99606.07;;;;-74
2023/04/01 06:57:13;;;;;;;;;;;;;;;9.3;100;99626.31;;;;-76
2023/04/01 07:02:20;;;;;;;;;;;;;;;9.32;100;99632.84;;;;-74
2023/04/01 07:07:13;;;;;;;;;;;;;;;9.34;100;99639.31;;;;-76
2023/04/01 07:12:18;;;;;;;;;;;;;;;9.38;100;99650.95;;;;-76
2023/04/01 07:17:10;;;;;;;;;;;;;;;9.42;100;99656.3;;;;-75
2023/04/01 07:19:23;;;;;;;12.5;6.1;;;;;;;;;;;;;-75
2023/04/01 07:22:09;;;;;;;;;;;;;;;9.43;100;99661.01;;;;-75
2023/04/01 07:27:09;;;;;;;;;;;;;;;9.48;100;99671.13;;;;-75
2023/04/01 07:32:21;;;;;;;;;;;;;;;9.51;100;99681.07;;;;-75
2023/04/01 07:37:12;;;;;;;;;;;;;;;9.54;100;99690.06;;;;-75
2023/04/01 07:42:11;;;;;;;;;;;;;;;9.57;100;99693.41;;;;-76
2023/04/01 07:47:15;;;;;;;;;;;;;;;9.61;100;99700.91;;;;-75
2023/04/01 07:49:28;;;;;;;11;5.2;;;;;;;;;;;;;-73
2023/04/01 07:52:10;;;;;;;;;;;;;;;9.69;100;99703.71;;;;-74
2023/04/01 07:57:12;;;;;;;;;;;;;;;9.73;100;99709.55;;;;-75
2023/04/01 08:02:16;;;;;;;;;;;;;;;9.81;100;99718.59;;;;-75
2023/04/01 08:07:13;;;;;;;;;;;;;;;9.86;100;99729.27;;;;-74
2023/04/01 08:12:13;;;;;;;;;;;;;;;9.89;100;99733.91;;;;-76
2023/04/01 08:17:13;;;;;;;;;;;;;;;9.92;100;99743.89;;;;-73
2023/04/01 08:19:28;;;;;;;13.3;4.9;;;;;;;;;;;;;-73
2023/04/01 08:22:13;;;;;;;;;;;;;;;9.98;100;99749.42;;;;-73
2023/04/01 08:27:13;;;;;;;;;;;;;;;10.06;100;99756.83;;;;-73
2023/04/01 08:32:12;;;;;;;;;;;;;;;10.15;100;99762.95;;;;-73
2023/04/01 08:37:11;;;;;;;;;;;;;;;10.23;100;99769.89;;;;-74
2023/04/01 08:42:20;;;;;;;;;;;;;;;10.32;100;99775.48;;;;-74
2023/04/01 08:47:24;;;;;;;;;;;;;;;10.36;100;99781.63;;;;-74
2023/04/01 08:49:32;;;;;;;9.8;4.4;;;;;;;;;;;;;-74
2023/04/01 08:52:20;;;;;;;;;;;;;;;10.41;100;99790.69;;;;-74
2023/04/01 08:57:11;;;;;;;;;;;;;;;10.55;100;99795.67;;;;-76
2023/04/01 09:02:32;;;;;;;;;;;;;;;10.62;100;99804.61;;;;-74
2023/04/01 09:07:16;;;;;;;;;;;;;;;10.65;100;99804.99;;;;-75
2023/04/01 09:12:22;;;;;;;;;;;;;;;10.66;100;99816.8;;;;-75
2023/04/01 09:17:19;;;;;;;;;;;;;;;10.66;100;99823;;;;-76
2023/04/01 09:19:37;;;;;;;11.3;5.1;;;;;;;;;;;;;-75
2023/04/01 09:22:19;;;;;;;;;;;;;;;10.71;100;99828.86;;;;-73
2023/04/01 09:27:14;;;;;;;;;;;;;;;10.75;100;99829.03;;;;-73
2023/04/01 09:32:20;;;;;;;;;;;;;;;10.76;100;99834;;;;-74
2023/04/01 09:37:21;;;;;;;;;;;;;;;10.79;100;99838.33;;;;-74
2023/04/01 09:42:18;;;;;;;;;;;;;;;10.77;100;99848.45;;;;-74
2023/04/01 09:47:15;;;;;;;;;;;;;;;10.79;100;99861.13;;;;-74
2023/04/01 09:49:49;;;;;;;9;4.6;;;;;;;;;;;;;-74
2023/04/01 09:52:14;;;;;;;;;;;;;;;10.8;100;99869.7;;;;-74
2023/04/01 09:57:28;;;;;;;;;;;;;;;10.84;100;99878.06;;;;-75
2023/04/01 10:02:37;;;;;;;;;;;;;;;10.93;100;99881.77;;;;-73
2023/04/01 10:12:21;;;;;;;;;;;;;;;11.28;99.42676;99886.97;;;;-73
2023/04/01 10:17:23;;;;;;;;;;;;;;;11.38;98.76563;99888.39;;;;-75
2023/04/01 10:19:43;;;;;;;7.6;3.9;;;;;;;;;;;;;-75
2023/04/01 10:22:29;;;;;;;;;;;;;;;11.4;98.19629;99893.65;;;;-74
2023/04/01 10:27:19;;;;;;;;;;;;;;;11.39;97.97363;99895.18;;;;-75
2023/04/01 10:32:28;;;;;;;;;;;;;;;11.35;98.31836;99893.29;;;;-75
2023/04/01 10:37:14;;;;;;;;;;;;;;;11.3;98.77148;99904.27;;;;-75
2023/04/01 10:42:29;;;;;;;;;;;;;;;11.26;99.01465;99913.06;;;;-75
2023/04/01 10:47:31;;;;;;;;;;;;;;;11.29;99.47266;99917.59;;;;-75
2023/04/01 10:49:48;;;;;;;9.7;4.8;;;;;;;;;;;;;-75
2023/04/01 10:52:19;;;;;;;;;;;;;;;11.38;100;99920.95;;;;-75
2023/04/01 10:57:14;;;;;;;;;;;;;;;11.47;99.46973;99925.16;;;;-74
2023/04/01 11:02:31;;;;;;;;;;;;;;;11.59;99.68359;99934.74;;;;-75
2023/04/01 11:07:38;;;;;;;;;;;;;;;11.65;99.8418;99942.71;;;;-75
2023/04/01 11:12:21;;;;;;;;;;;;;;;11.61;99.43164;99947.08;;;;-75
2023/04/01 11:17:18;;;;;;;;;;;;;;;11.62;99.86816;99953.23;;;;-74
2023/04/01 11:19:41;;;;;;;9.5;5.3;;;;;;;;;;;;;-74
2023/04/01 11:22:27;;;;;;;;;;;;;;;11.64;99.64941;99956.15;;;;-73
2023/04/01 11:27:15;;;;;;;;;;;;;;;11.68;99.42871;99962.98;;;;-73
2023/04/01 11:32:17;;;;;;;;;;;;;;;11.74;99.35254;99969.7;;;;-73
2023/04/01 11:37:15;;;;;;;;;;;;;;;11.78;98.81152;99980.67;;;;-74
2023/04/01 11:42:13;;;;;;;;;;;;;;;11.83;98.37988;99987.14;;;;-74
2023/04/01 11:47:16;;;;;;;;;;;;;;;11.93;98.37988;99993.69;;;;-74
2023/04/01 11:49:41;;;;;;;8.8;5.3;;;;;;;;;;;;;-75
2023/04/01 11:52:17;;;;;;;;;;;;;;;12.03;97.83984;99998.47;;;;-74
2023/04/01 11:57:17;;;;;;;;;;;;;;;12.07;97.5625;100005.9;;;;-75
2023/04/01 12:02:14;;;;;;;;;;;;;;;12.06;97.66895;100014.8;;;;-75
2023/04/01 12:07:15;;;;;;;;;;;;;;;12.06;97.75879;100022.2;;;;-75
2023/04/01 12:12:17;;;;;;;;;;;;;;;12.11;97.62598;100028;;;;-74
2023/04/01 12:17:12;;;;;;;;;;;;;;;12.12;97.28516;100033.7;;;;-74
2023/04/01 12:19:38;;;;;;;10.3;5.5;;;;;;;;;;;;;-75
2023/04/01 12:22:16;;;;;;;;;;;;;;;12.1;97.1377;100043.2;;;;-74
2023/04/01 12:27:15;;;;;;;;;;;;;;;12.11;97.89063;100051.5;;;;-74
2023/04/01 12:32:13;;;;;;;;;;;;;;;12.05;98.40918;100059.5;;;;-74
2023/04/01 12:37:13;;;;;;;;;;;;;;;12.07;100;100070;;;;-75
2023/04/01 12:42:18;;;;;;;;;;;;;;;12.08;100;100075;;;;-76
2023/04/01 12:47:28;;;;;;;;;;;;;;;12.1;99.83203;100083.8;;;;-74
2023/04/01 12:49:46;;;;;;;6.4;3.6;;;;;;;;;;;;;-74
2023/04/01 12:52:12;;;;;;;;;;;;;;;12.14;99.4209;100095.6;;;;-74
2023/04/01 12:57:16;;;;;;;;;;;;;;;12.14;98.95703;100095.5;;;;-74
2023/04/01 13:02:15;;;;;;;;;;;;;;;12.15;99.22656;100103.4;;;;-74
2023/04/01 13:07:17;;;;;;;;;;;;;;;12.15;98.85059;100113.2;;;;-74
2023/04/01 13:12:21;;;;;;;;;;;;;;;12.14;98.65918;100118.1;;;;-74
2023/04/01 13:17:14;;;;;;;;;;;;;;;12.09;99.0791;100130.1;;;;-75
2023/04/01 13:19:40;;;;;;;6;3.5;;;;;;;;;;;;;-75
2023/04/01 13:22:15;;;;;;;;;;;;;;;12.11;99.27148;100134.8;;;;-73
2023/04/01 13:27:11;;;;;;;;;;;;;;;12.07;99.87891;100141.4;;;;-74
2023/04/01 13:32:16;;;;;;;;;;;;;;;11.99;99.72168;100152.9;;;;-74
2023/04/01 13:37:15;;;;;;;;;;;;;;;11.93;99.28516;100165;;;;-75
2023/04/01 13:42:16;;;;;;;;;;;;;;;11.91;100;100162.2;;;;-75
2023/04/01 13:47:27;;;;;;;;;;;;;;;11.81;99.36035;100173.3;;;;-74
2023/04/01 13:49:49;;;;;;;6;3.3;;;;;;;;;;;;;-75
2023/04/01 13:52:25;;;;;;;;;;;;;;;11.72;99.95508;100182.1;;;;-74
2023/04/01 13:57:18;;;;;;;;;;;;;;;11.62;100;100189.6;;;;-74
2023/04/01 14:02:18;;;;;;;;;;;;;;;11.55;100;100198;;;;-74
2023/04/01 14:07:12;;;;;;;;;;;;;;;11.48;100;100209.2;;;;-74
2023/04/01 14:12:13;;;;;;;;;;;;;;;11.46;100;100214.3;;;;-74
2023/04/01 14:17:17;;;;;;;;;;;;;;;11.43;100;100221.3;;;;-75
2023/04/01 14:19:48;;;;;;;6.9;3.4;;;;;;;;;;;;;-75
2023/04/01 14:22:14;;;;;;;;;;;;;;;11.43;100;100231.8;;;;-75
2023/04/01 14:27:24;;;;;;;;;;;;;;;11.41;100;100238.1;;;;-74
2023/04/01 14:32:18;;;;;;;;;;;;;;;11.39;100;100248.8;;;;-74
2023/04/01 14:37:17;;;;;;;;;;;;;;;11.41;100;100255.8;;;;-75
2023/04/01 14:42:23;;;;;;;;;;;;;;;11.39;100;100264.1;;;;-75
2023/04/01 14:47:22;;;;;;;;;;;;;;;11.35;100;100272.5;;;;-74
2023/04/01 14:49:41;;;;;;;5.3;3;;;;;;;;;;;;;-75
2023/04/01 14:52:16;;;;;;;;;;;;;;;11.36;100;100281.8;;;;-75
2023/04/01 14:57:14;;;;;;;;;;;;;;;11.31;100;100298.8;;;;-74
2023/04/01 15:07:14;;;;;;;;;;;;;;;11.23;100;100313.9;;;;-75
2023/04/01 15:12:16;;;;;;;;;;;;;;;11.16;100;100324.8;;;;-75
2023/04/01 15:17:20;;;;;;;;;;;;;;;11.1;100;100332.7;;;;-75
2023/04/01 15:19:51;;;;;;;5.5;2.7;;;;;;;;;;;;;-75
2023/04/01 15:22:16;;;;;;;;;;;;;;;11.05;100;100343.4;;;;-74
2023/04/01 15:27:16;;;;;;;;;;;;;;;10.99;100;100357;;;;-75
2023/04/01 15:32:16;;;;;;;;;;;;;;;10.94;100;100366.6;;;;-75
2023/04/01 15:37:20;;;;;;;;;;;;;;;10.89;99.9082;100370.9;;;;-75
2023/04/01 15:42:25;;;;;;;;;;;;;;;10.86;99.84668;100381.3;;;;-75
2023/04/01 15:47:18;;;;;;;;;;;;;;;10.82;99.70801;100397.1;;;;-75
2023/04/01 15:49:50;;;;;;;4.5;2.4;;;;;;;;;;;;;-75
2023/04/01 15:52:18;;;;;;;;;;;;;;;10.78;99.44531;100404;;;;-76
2023/04/01 15:57:19;;;;;;;;;;;;;;;10.72;99.55371;100416.1;;;;-75
2023/04/01 16:02:16;;;;;;;;;;;;;;;10.68;99.55469;100426;;;;-75
2023/04/01 16:07:14;;;;;;;;;;;;;;;10.63;99.3457;100436.6;;;;-74
2023/04/01 16:12:14;;;;;;;;;;;;;;;10.58;99.53223;100446;;;;-74
2023/04/01 16:17:17;;;;;;;;;;;;;;;10.53;99.37793;100456.9;;;;-75
2023/04/01 16:19:50;;;;;;;4.3;2.2;;;;;;;;;;;;;-75
2023/04/01 16:22:20;;;;;;;;;;;;;;;10.46;99.39453;100465.6;;;;-75
2023/04/01 16:27:19;;;;;;;;;;;;;;;10.41;99.30566;100474.7;;;;-74
2023/04/01 16:32:15;;;;;;;;;;;;;;;10.36;99.1416;100480.7;;;;-75
2023/04/01 16:37:12;;;;;;;;;;;;;;;10.31;99.29395;100495.9;;;;-74
2023/04/01 16:42:20;;;;;;;;;;;;;;;10.26;99.30566;100503.8;;;;-75
2023/04/01 16:47:16;;;;;;;;;;;;;;;10.2;99.37891;100508.2;;;;-75
2023/04/01 16:49:48;;;;;;;4.8;2.4;;;;;;;;;;;;;-75
2023/04/01 16:52:22;;;;;;;;;;;;;;;10.12;99.30762;100530.2;;;;-74
2023/04/01 16:57:18;;;;;;;;;;;;;;;10.04;99.60742;100534.4;;;;-75
2023/04/01 17:02:14;;;;;;;;;;;;;;;10.02;99.39258;100549.1;;;;-75
2023/04/01 17:07:14;;;;;;;;;;;;;;;9.94;99.31934;100558.8;;;;-74
2023/04/01 17:12:15;;;;;;;;;;;;;;;9.89;99.49512;100573.1;;;;-75
2023/04/01 17:17:17;;;;;;;;;;;;;;;9.85;99.39941;100590.8;;;;-75
2023/04/01 17:19:53;;;;;;;4;2.2;;;;;;;;;;;;;-74
2023/04/01 17:22:16;;;;;;;;;;;;;;;9.77;99.46875;100596.2;;;;-74
2023/04/01 17:27:20;;;;;;;;;;;;;;;9.71;99.36621;100609.9;;;;-77
2023/04/01 17:32:14;;;;;;;;;;;;;;;9.67;99.49023;100627.3;;;;-75
2023/04/01 17:37:20;;;;;;;;;;;;;;;9.56;99.56348;100636;;;;-74
2023/04/01 17:42:09;;;;;;;;;;;;;;;9.51;99.54004;100646.3;;;;-75
2023/04/01 17:47:14;;;;;;;;;;;;;;;9.47;99.40039;100662.6;;;;-75
2023/04/01 17:49:53;;;;;;;4.4;2.3;;;;;;;;;;;;;-74
2023/04/01 17:52:16;;;;;;;;;;;;;;;9.44;99.55664;100676;;;;-74
2023/04/01 17:57:15;;;;;;;;;;;;;;;9.39;99.19727;100687.6;;;;-75
2023/04/01 18:02:13;;;;;;;;;;;;;;;9.34;99.42676;100694.4;;;;-73
2023/04/01 18:07:22;;;;;;;;;;;;;;;9.26;99.55078;100711.9;;;;-74
2023/04/01 18:12:13;;;;;;;;;;;;;;;9.19;99.27246;100732.1;;;;-74
2023/04/01 18:17:16;;;;;;;;;;;;;;;9.11;99.41895;100740.3;;;;-76
2023/04/01 18:19:58;;;;;;;6;2.4;;;;;;;;;;;;;-75
2023/04/01 18:22:14;;;;;;;;;;;;;;;9.05;99.2832;100752.1;;;;-75
2023/04/01 18:27:16;;;;;;;;;;;;;;;9.02;99.57129;100766.3;;;;-73
2023/04/01 18:32:18;;;;;;;;;;;;;;;8.96;99.2959;100780.8;;;;-76
2023/04/01 18:37:20;;;;;;;;;;;;;;;8.92;99.375;100795.7;;;;-75
2023/04/01 18:42:12;;;;;;;;;;;;;;;8.88;99.43262;100806.7;;;;-74
2023/04/01 18:47:15;;;;;;;;;;;;;;;8.85;99.49023;100817.6;;;;-75
2023/04/01 18:49:56;;;;;;;5.1;3.1;;;;;;;;;;;;;-76
2023/04/01 18:52:13;;;;;;;;;;;;;;;8.81;99.30469;100828.4;;;;-74
2023/04/01 18:57:16;;;;;;;;;;;;;;;8.74;99.30078;100842.9;;;;-76
2023/04/01 19:02:21;;;;;;;;;;;;;;;8.67;99.39355;100853.9;;;;-75
2023/04/01 19:07:18;;;;;;;;;;;;;;;8.64;99.26758;100864.8;;;;-74
2023/04/01 19:12:27;;;;;;;;;;;;;;;8.61;99.19531;100878;;;;-76
2023/04/01 19:17:12;;;;;;;;;;;;;;;8.57;99.11035;100889.9;;;;-75
2023/04/01 19:19:57;;;;;;;7.6;3.2;;;;;;;;;;;;;-75
2023/04/01 19:22:16;;;;;;;;;;;;;;;8.55;99.24902;100900.5;;;;-75
2023/04/01 19:27:14;;;;;;;;;;;;;;;8.53;99.25293;100915.1;;;;-75
2023/04/01 19:32:14;;;;;;;;;;;;;;;8.48;99.35254;100928.5;;;;-74
2023/04/01 19:37:13;;;;;;;;;;;;;;;8.46;99.05078;100944.8;;;;-75
2023/04/01 19:42:14;;;;;;;;;;;;;;;8.44;99.16699;100952.2;;;;-74
2023/04/01 19:47:17;;;;;;;;;;;;;;;8.4;99.34473;100959.8;;;;-74
2023/04/01 19:50:01;;;;;;;7.5;3.6;;;;;;;;;;;;;-75
2023/04/01 19:52:15;;;;;;;;;;;;;;;8.37;99.25977;100973.9;;;;-74
2023/04/01 19:57:13;;;;;;;;;;;;;;;8.31;99.35742;100981.2;;;;-74
2023/04/01 20:02:19;;;;;;;;;;;;;;;8.28;99.36133;100996.1;;;;-75
2023/04/01 20:07:11;;;;;;;;;;;;;;;8.23;99.1875;101008.6;;;;-75
2023/04/01 20:12:10;;;;;;;;;;;;;;;8.21;99.14844;101024.7;;;;-75
2023/04/01 20:17:12;;;;;;;;;;;;;;;8.17;99.3125;101037.1;;;;-77
2023/04/01 20:19:55;;;;;;;8.2;4;;;;;;;;;;;;;-76
2023/04/01 20:22:09;;;;;;;;;;;;;;;8.11;99.22363;101040.7;;;;-75
2023/04/01 20:27:12;;;;;;;;;;;;;;;8.09;99.04297;101052.2;;;;-74
2023/04/01 20:32:15;;;;;;;;;;;;;;;8.08;98.91992;101056.8;;;;-75
2023/04/01 20:37:14;;;;;;;;;;;;;;;8.05;99.20898;101071;;;;-74
2023/04/01 20:42:20;;;;;;;;;;;;;;;8.01;99.0459;101093.2;;;;-74
2023/04/01 20:47:14;;;;;;;;;;;;;;;7.98;99.37891;101101.9;;;;-76
2023/04/01 20:50:00;;;;;;;8.7;4.2;;;;;;;;;;;;;-75
2023/04/01 20:52:19;;;;;;;;;;;;;;;7.95;99.33984;101105.5;;;;-75
2023/04/01 20:57:10;;;;;;;;;;;;;;;7.92;98.95996;101113.9;;;;-75
2023/04/01 21:02:20;;;;;;;;;;;;;;;7.87;99.10254;101123.4;;;;-75
2023/04/01 21:07:21;;;;;;;;;;;;;;;7.83;99.12891;101137.7;;;;-75
2023/04/01 21:12:16;;;;;;;;;;;;;;;7.82;99.10254;101143;;;;-75
2023/04/01 21:17:12;;;;;;;;;;;;;;;7.79;98.96582;101152;;;;-75
2023/04/01 21:20:09;;;;;;;7.9;4.6;;;;;;;;;;;;;-75
2023/04/01 21:22:19;;;;;;;;;;;;;;;7.74;99.08496;101164.6;;;;-74
2023/04/01 21:27:13;;;;;;;;;;;;;;;7.7;98.85742;101177.6;;;;-74
2023/04/01 21:32:20;;;;;;;;;;;;;;;7.67;99.00195;101185;;;;-74
2023/04/01 21:37:18;;;;;;;;;;;;;;;7.65;98.87793;101196.8;;;;-73
2023/04/01 21:42:18;;;;;;;;;;;;;;;7.64;98.97461;101206.2;;;;-74
2023/04/01 21:47:19;;;;;;;;;;;;;;;7.56;98.79395;101212.3;;;;-73
2023/04/01 21:50:04;;;;;;;9.7;4.7;;;;;;;;;;;;;-77
2023/04/01 21:52:19;;;;;;;;;;;;;;;7.55;98.89648;101221;;;;-74
2023/04/01 21:57:19;;;;;;;;;;;;;;;7.53;98.61035;101232.8;;;;-74
2023/04/01 22:02:23;;;;;;;;;;;;;;;7.48;98.56738;101241.8;;;;-75
2023/04/01 22:07:13;;;;;;;;;;;;;;;7.46;98.61621;101248.9;;;;-75
2023/04/01 22:12:14;;;;;;;;;;;;;;;7.44;98.68848;101254.8;;;;-74
2023/04/01 22:17:16;;;;;;;;;;;;;;;7.38;98.44629;101264.8;;;;-74
2023/04/01 22:20:04;;;;;;;9.9;4.8;;;;;;;;;;;;;-77
2023/04/01 22:22:17;;;;;;;;;;;;;;;7.38;98.55371;101279.6;;;;-74
2023/04/01 22:27:13;;;;;;;;;;;;;;;7.33;98.42578;101293.9;;;;-74
2023/04/01 22:32:12;;;;;;;;;;;;;;;7.31;98.48242;101299.6;;;;-75
2023/04/01 22:37:13;;;;;;;;;;;;;;;7.28;98.28027;101304.6;;;;-74
2023/04/01 22:42:12;;;;;;;;;;;;;;;7.27;98.20117;101314.2;;;;-75
2023/04/01 22:47:17;;;;;;;;;;;;;;;7.21;98.26563;101323.8;;;;-74
2023/04/01 22:50:02;;;;;;;9.8;4.9;;;;;;;;;;;;;-74
2023/04/01 22:52:16;;;;;;;;;;;;;;;7.18;98.21387;101334.7;;;;-75
2023/04/01 22:57:12;;;;;;;;;;;;;;;7.17;97.99316;101341.7;;;;-75
2023/04/01 23:02:10;;;;;;;;;;;;;;;7.11;98.11426;101337.3;;;;-75
2023/04/01 23:07:19;;;;;;;;;;;;;;;7.08;97.8877;101354.5;;;;-74
2023/04/01 23:12:11;;;;;;;;;;;;;;;7.07;97.69824;101355.7;;;;-74
2023/04/01 23:17:13;;;;;;;;;;;;;;;7.03;97.87695;101374.3;;;;-74
2023/04/01 23:20:00;;;;;;;9.5;4.4;;;;;;;;;;;;;-74
2023/04/01 23:22:13;;;;;;;;;;;;;;;7.04;97.76855;101388.8;;;;-75
2023/04/01 23:27:15;;;;;;;;;;;;;;;6.99;97.76855;101401.1;;;;-75
2023/04/01 23:32:17;;;;;;;;;;;;;;;6.97;97.67578;101407;;;;-75
2023/04/01 23:37:15;;;;;;;;;;;;;;;6.98;97.68848;101411.9;;;;-74
2023/04/01 23:42:15;;;;;;;;;;;;;;;6.95;97.66016;101421.8;;;;-75
2023/04/01 23:47:14;;;;;;;;;;;;;;;6.92;97.55566;101429.5;;;;-76
2023/04/01 23:49:59;;;;;;;11;4;;;;;;;;;;;;;-75
2023/04/01 23:52:14;;;;;;;;;;;;;;;6.88;97.42773;101438.8;;;;-74
2023/04/01 23:57:18;;;;;;;;;;;;;;;6.85;97.4082;101444.1;;;;-74
